Time;durP1;ratioP1;P1;durP2;ratioP2;P2;SDS_P1;SDS_P2;PMS_P1;PMS_P2;Temp;Humidity;BMP_temperature;BMP_pressure;BME280_temperature;BME280_humidity;BME280_pressure;Samples;Min_cycle;Max_cycle;Signal;HPM_P1;HPM_P2
2022/11/11 00:02:16;;;;;;;12.85;5.00;;;3.50;99.90;;;;;;5003447;28;20044;-82
2022/11/11 00:05:01;;;;;;;8.63;4.70;;;3.50;99.90;;;;;;5014548;28;20048;-82
2022/11/11 00:07:45;;;;;;;8.70;4.40;;;3.50;99.90;;;;;;5020308;28;20052;-82
2022/11/11 00:10:30;;;;;;;13.35;5.57;;;3.50;99.90;;;;;;5017579;28;20518;-83
2022/11/11 00:13:14;;;;;;;11.50;6.00;;;3.50;99.90;;;;;;5024050;28;20053;-81
2022/11/11 00:16:14;;;;;;;15.75;6.35;;;3.50;99.90;;;;;;5010189;28;20395;-82
2022/11/11 00:25:08;;;;;;;12.75;6.80;;;3.70;99.90;;;;;;5022434;28;20053;-82
2022/11/11 00:27:52;;;;;;;14.07;6.13;;;3.80;99.90;;;;;;5022647;28;20402;-82
2022/11/11 00:30:37;;;;;;;22.08;7.20;;;3.70;99.90;;;;;;5004801;28;20518;-82
2022/11/11 00:33:22;;;;;;;17.33;7.13;;;3.60;99.90;;;;;;5022508;28;20502;-82
2022/11/11 00:36:07;;;;;;;12.88;6.22;;;3.50;99.90;;;;;;5001225;28;20045;-82
2022/11/11 00:38:54;;;;;;;19.88;6.03;;;3.40;99.90;;;;;;5026811;28;20049;-82
2022/11/11 00:41:38;;;;;;;14.63;6.60;;;3.50;99.90;;;;;;5021813;28;20045;-82
2022/11/11 00:44:23;;;;;;;16.15;6.03;;;3.50;99.90;;;;;;5014675;28;20044;-82
2022/11/11 00:53:22;;;;;;;14.70;6.32;;;3.40;99.90;;;;;;5028211;28;20113;-82
2022/11/11 00:56:07;;;;;;;18.85;6.38;;;3.40;99.90;;;;;;5023667;28;20056;-82
2022/11/11 00:58:52;;;;;;;13.10;6.32;;;3.30;99.90;;;;;;5015791;28;20069;-82
2022/11/11 01:01:37;;;;;;;16.35;7.40;;;3.30;99.90;;;;;;5014296;28;20061;-83
2022/11/11 01:04:22;;;;;;;15.38;7.07;;;3.20;99.90;;;;;;5007148;28;20045;-82
2022/11/11 01:07:06;;;;;;;17.30;7.40;;;3.30;99.90;;;;;;5012204;28;20060;-82
2022/11/11 01:09:51;;;;;;;17.77;6.82;;;3.20;99.90;;;;;;5015971;28;20048;-83
2022/11/11 01:12:36;;;;;;;12.40;6.68;;;3.00;99.90;;;;;;5016917;28;20049;-82
2022/11/11 01:15:20;;;;;;;12.40;6.68;;;3.00;99.90;;;;;;5031914;28;20049;-82
2022/11/11 01:18:06;;;;;;;13.18;7.95;;;3.00;99.90;;;;;;5010190;28;20069;-82
2022/11/11 01:21:14;;;;;;;18.15;7.93;;;3.00;99.90;;;;;;5004098;28;20391;-82
2022/11/11 01:24:00;;;;;;;19.55;8.25;;;3.20;99.90;;;;;;5002081;28;20037;-82
2022/11/11 01:26:45;;;;;;;20.48;8.77;;;3.20;99.90;;;;;;5022991;28;20045;-81
2022/11/11 01:29:29;;;;;;;32.83;9.13;;;3.20;99.90;;;;;;5014895;28;20053;-82
2022/11/11 01:32:14;;;;;;;24.92;8.98;;;3.20;99.90;;;;;;5013444;28;20049;-83
2022/11/11 01:34:58;;;;;;;19.45;8.43;;;3.10;99.90;;;;;;5015746;28;20048;-82
2022/11/11 01:37:43;;;;;;;17.80;8.55;;;3.10;99.90;;;;;;5019082;28;20052;-82
2022/11/11 01:40:28;;;;;;;20.40;8.45;;;3.00;99.90;;;;;;5018079;28;20396;-82
2022/11/11 01:43:21;;;;;;;16.33;7.72;;;2.90;99.90;;;;;;5033396;28;20489;-82
2022/11/11 01:46:26;;;;;;;16.90;8.07;;;3.00;99.90;;;;;;5025036;28;20044;-82
2022/11/11 01:49:17;;;;;;;18.17;8.13;;;3.10;99.90;;;;;;5019216;28;20490;-82
2022/11/11 01:52:11;;;;;;;15.38;7.10;;;3.20;99.90;;;;;;5016913;28;20052;-83
2022/11/11 01:55:08;;;;;;;16.17;7.68;;;3.10;99.90;;;;;;5006503;28;20048;-82
2022/11/11 01:58:01;;;;;;;16.92;8.30;;;3.10;99.90;;;;;;5025791;28;20497;-82
2022/11/11 02:00:45;;;;;;;24.02;9.35;;;3.20;99.90;;;;;;5026129;28;20056;-81
2022/11/11 02:03:34;;;;;;;19.60;9.85;;;3.30;99.90;;;;;;5023581;28;20420;-82
2022/11/11 02:06:19;;;;;;;31.75;11.35;;;3.30;99.90;;;;;;5012226;28;20122;-82
2022/11/11 02:09:06;;;;;;;22.63;9.93;;;3.20;99.90;;;;;;5010408;28;20064;-82
2022/11/11 02:14:59;;;;;;;23.02;9.07;;;3.30;99.90;;;;;;5026377;28;20040;-82
2022/11/11 02:17:46;;;;;;;23.02;10.07;;;3.20;99.90;;;;;;5015575;28;20076;-82
2022/11/11 02:20:43;;;;;;;21.85;8.43;;;3.10;99.90;;;;;;5004826;28;20052;-82
2022/11/11 02:23:31;;;;;;;26.45;10.45;;;3.10;99.90;;;;;;5019045;28;20064;-83
2022/11/11 02:26:17;;;;;;;38.42;10.52;;;3.00;99.90;;;;;;5014600;28;20052;-82
2022/11/11 02:29:09;;;;;;;27.08;11.57;;;3.10;99.90;;;;;;5026000;28;20049;-83
2022/11/11 02:31:54;;;;;;;20.95;10.80;;;3.10;99.90;;;;;;5022907;28;20064;-82
2022/11/11 02:34:39;;;;;;;22.55;10.63;;;3.10;99.90;;;;;;5012373;28;20395;-83
2022/11/11 02:37:25;;;;;;;26.70;12.02;;;3.10;99.90;;;;;;5004944;28;20053;-82
2022/11/11 02:40:13;;;;;;;22.02;10.18;;;3.10;99.90;;;;;;5012443;28;20045;-83
2022/11/11 02:42:58;;;;;;;21.67;10.25;;;3.10;99.90;;;;;;5031757;28;20057;-82
2022/11/11 02:45:42;;;;;;;23.77;9.50;;;3.10;99.90;;;;;;5032931;28;20045;-83
2022/11/11 02:48:27;;;;;;;25.65;11.45;;;3.10;99.90;;;;;;5011993;28;20118;-81
2022/11/11 02:51:12;;;;;;;23.80;10.60;;;3.10;99.90;;;;;;5025122;28;20048;-82
2022/11/11 02:53:59;;;;;;;23.20;10.82;;;3.10;99.90;;;;;;5033104;28;20065;-83
2022/11/11 02:59:48;;;;;;;32.40;11.90;;;3.00;99.90;;;;;;5018930;28;20049;-83
2022/11/11 03:02:33;;;;;;;30.42;10.48;;;3.00;99.90;;;;;;5004989;28;20052;-82
2022/11/11 03:05:18;;;;;;;34.20;10.95;;;3.00;99.90;;;;;;5031033;28;20052;-82
2022/11/11 03:08:03;;;;;;;29.38;10.98;;;2.90;99.90;;;;;;5012336;28;20052;-83
2022/11/11 03:10:48;;;;;;;22.73;10.68;;;3.00;99.90;;;;;;5010465;28;20505;-82
2022/11/11 03:13:32;;;;;;;29.17;13.13;;;3.00;99.90;;;;;;5010083;28;20052;-82
2022/11/11 03:19:20;;;;;;;23.20;11.43;;;3.00;99.90;;;;;;5013342;28;20061;-81
2022/11/11 03:22:04;;;;;;;26.52;10.65;;;3.00;99.90;;;;;;5017924;28;20044;-82
2022/11/11 03:27:52;;;;;;;33.72;10.95;;;2.80;99.90;;;;;;5013163;28;20052;-82
2022/11/11 03:30:38;;;;;;;19.15;9.32;;;2.70;99.90;;;;;;4997588;28;20081;-83
2022/11/11 03:33:23;;;;;;;22.58;11.13;;;2.60;99.90;;;;;;4999526;28;20064;-82
2022/11/11 03:36:08;;;;;;;23.63;12.52;;;2.60;99.90;;;;;;4998146;28;20498;-82
2022/11/11 03:38:52;;;;;;;23.10;11.10;;;2.60;99.90;;;;;;5005403;28;20403;-81
2022/11/11 03:41:37;;;;;;;26.88;11.70;;;2.70;99.90;;;;;;4996226;28;20498;-82
2022/11/11 03:44:21;;;;;;;24.92;11.43;;;2.60;99.90;;;;;;4999067;28;20045;-83
2022/11/11 03:47:06;;;;;;;24.75;11.18;;;2.50;99.90;;;;;;5009241;28;20506;-82
2022/11/11 03:49:50;;;;;;;21.20;9.90;;;2.40;99.90;;;;;;5024853;28;20057;-82
2022/11/11 03:52:40;;;;;;;23.42;10.75;;;2.40;99.90;;;;;;5028078;28;20041;-84
2022/11/11 03:55:26;;;;;;;24.30;10.50;;;2.40;99.90;;;;;;5024806;28;20044;-83
2022/11/11 03:58:11;;;;;;;22.35;10.35;;;2.40;99.90;;;;;;4993956;28;20053;-82
2022/11/11 04:00:56;;;;;;;26.08;12.02;;;2.50;99.90;;;;;;4992608;28;20053;-82
2022/11/11 04:16:08;;;;;;;24.92;11.23;;;2.50;99.90;;;;;;5012012;28;20518;-81
2022/11/11 04:21:56;;;;;;;25.50;12.50;;;2.40;99.90;;;;;;5007004;28;20047;-81
2022/11/11 04:27:44;;;;;;;20.50;10.20;;;2.30;99.90;;;;;;4990818;28;20507;-82
2022/11/11 04:30:28;;;;;;;23.83;11.23;;;2.40;99.90;;;;;;4985888;28;20530;-82
2022/11/11 04:33:13;;;;;;;24.75;12.50;;;2.50;99.90;;;;;;5004640;28;20045;-81
2022/11/11 04:35:58;;;;;;;23.73;11.48;;;2.50;99.90;;;;;;5003722;28;20052;-81
2022/11/11 04:41:46;;;;;;;16.73;9.18;;;2.40;99.90;;;;;;4991122;28;20069;-82
2022/11/11 04:47:34;;;;;;;16.58;8.27;;;2.30;99.90;;;;;;5005307;28;20057;-81
2022/11/11 04:50:19;;;;;;;18.70;8.90;;;2.20;99.90;;;;;;4997296;28;20466;-81
2022/11/11 04:53:07;;;;;;;16.75;8.55;;;2.20;99.90;;;;;;5002965;28;20483;-81
2022/11/11 04:59:14;;;;;;;20.33;9.30;;;2.30;99.90;;;;;;5000061;28;20048;-80
2022/11/11 05:05:03;;;;;;;20.30;8.43;;;2.30;99.90;;;;;;5002587;28;20046;-81
2022/11/11 05:10:52;;;;;;;18.50;8.50;;;2.50;99.90;;;;;;4994621;28;20391;-81
2022/11/11 05:22:52;;;;;;;25.30;10.18;;;3.00;99.90;;;;;;4991954;28;20455;-81
2022/11/11 05:25:37;;;;;;;23.63;9.05;;;3.00;99.90;;;;;;4998355;28;20502;-80
2022/11/11 05:28:21;;;;;;;26.63;8.88;;;3.00;99.90;;;;;;5007166;28;20498;-80
2022/11/11 05:31:06;;;;;;;32.72;10.85;;;3.00;99.90;;;;;;5017122;28;20499;-81
2022/11/11 05:33:51;;;;;;;28.05;9.80;;;3.00;99.90;;;;;;5013525;28;20033;-80
2022/11/11 05:36:35;;;;;;;60.55;13.45;;;3.00;99.90;;;;;;5022399;28;20394;-81
2022/11/11 05:39:21;;;;;;;28.35;9.88;;;3.00;99.90;;;;;;5036881;28;20076;-80
2022/11/11 05:42:06;;;;;;;25.63;10.05;;;2.90;99.90;;;;;;5038497;28;20052;-80
2022/11/11 05:44:51;;;;;;;22.77;9.40;;;2.80;99.90;;;;;;5021461;28;20387;-81
2022/11/11 05:47:35;;;;;;;21.73;9.25;;;2.80;99.90;;;;;;5018748;28;20375;-81
2022/11/11 05:50:20;;;;;;;25.77;10.70;;;2.80;99.90;;;;;;5007479;28;20521;-80
2022/11/11 05:53:04;;;;;;;26.20;12.18;;;3.00;99.90;;;;;;5007081;28;20040;-80
2022/11/11 05:55:50;;;;;;;27.55;12.88;;;3.10;99.90;;;;;;5006758;28;20061;-80
2022/11/11 05:58:34;;;;;;;27.02;10.68;;;3.20;99.90;;;;;;5016211;28;20049;-80
2022/11/11 06:01:19;;;;;;;30.33;11.85;;;3.30;99.90;;;;;;5022677;28;20052;-78
2022/11/11 06:04:04;;;;;;;34.33;13.60;;;3.40;99.90;;;;;;5009577;28;20057;-78
2022/11/11 06:06:49;;;;;;;38.33;12.93;;;3.50;99.90;;;;;;5024044;28;20052;-76
2022/11/11 06:09:34;;;;;;;34.42;13.18;;;3.50;99.90;;;;;;5032930;28;20036;-79
2022/11/11 06:12:18;;;;;;;32.13;13.95;;;3.60;99.90;;;;;;5033196;28;20052;-79
2022/11/11 06:15:03;;;;;;;31.38;14.52;;;3.60;99.90;;;;;;5010532;28;20060;-79
2022/11/11 06:17:48;;;;;;;33.97;13.75;;;3.60;99.90;;;;;;5016145;28;20056;-78
2022/11/11 06:20:34;;;;;;;37.15;13.32;;;3.60;99.90;;;;;;5021714;28;20044;-77
2022/11/11 06:23:19;;;;;;;38.22;13.43;;;3.50;99.90;;;;;;5007636;28;20052;-77
2022/11/11 06:26:14;;;;;;;36.10;13.05;;;3.60;99.90;;;;;;5016552;28;20041;-77
2022/11/11 06:28:58;;;;;;;33.80;11.27;;;3.70;99.90;;;;;;5023633;28;20096;-77
2022/11/11 06:31:44;;;;;;;32.05;12.73;;;3.70;99.90;;;;;;5023648;28;20052;-77
2022/11/11 06:34:28;;;;;;;30.77;12.20;;;3.70;99.90;;;;;;5015436;28;20049;-79
2022/11/11 06:37:13;;;;;;;38.70;12.60;;;3.70;99.90;;;;;;5013600;28;20582;-78
2022/11/11 06:39:57;;;;;;;34.50;11.43;;;3.70;99.90;;;;;;5009736;28;20052;-77
2022/11/11 06:42:42;;;;;;;42.50;13.25;;;3.70;99.90;;;;;;5004070;28;20048;-77
2022/11/11 06:45:29;;;;;;;43.92;13.80;;;3.80;99.90;;;;;;5006119;28;20048;-77
2022/11/11 06:48:13;;;;;;;44.58;13.18;;;3.90;99.90;;;;;;5013146;28;20044;-77
2022/11/11 06:51:03;;;;;;;51.50;14.85;;;3.90;99.90;;;;;;5006061;28;20057;-77
2022/11/11 06:53:48;;;;;;;76.65;23.38;;;3.90;99.90;;;;;;5013838;28;20052;-78
2022/11/11 06:56:33;;;;;;;47.22;20.00;;;3.80;99.90;;;;;;5013003;28;20049;-77
2022/11/11 06:59:18;;;;;;;74.53;19.20;;;3.70;99.90;;;;;;5018994;28;20044;-77
2022/11/11 07:02:02;;;;;;;55.50;16.55;;;3.70;99.90;;;;;;5012993;28;20049;-77
2022/11/11 07:04:46;;;;;;;37.40;15.57;;;3.70;99.90;;;;;;5032134;28;20394;-77
2022/11/11 07:07:31;;;;;;;38.30;14.30;;;3.80;99.90;;;;;;5006425;28;20056;-77
2022/11/11 07:10:16;;;;;;;37.88;14.80;;;3.90;99.90;;;;;;5013469;28;20049;-77
2022/11/11 07:13:01;;;;;;;29.85;13.10;;;4.00;99.90;;;;;;5025950;28;20044;-77
2022/11/11 07:15:47;;;;;;;41.88;14.02;;;4.10;99.90;;;;;;5017632;28;20048;-77
2022/11/11 07:18:31;;;;;;;47.67;14.80;;;4.20;99.90;;;;;;5008417;28;20060;-77
2022/11/11 07:21:16;;;;;;;41.42;13.60;;;4.30;99.90;;;;;;5015658;28;20497;-77
2022/11/11 07:24:00;;;;;;;40.92;14.18;;;4.40;99.90;;;;;;5012847;28;20052;-78
2022/11/11 07:26:45;;;;;;;38.60;15.38;;;4.50;99.90;;;;;;5024819;28;20049;-77
2022/11/11 07:29:29;;;;;;;51.55;18.75;;;4.70;99.90;;;;;;5011924;28;20077;-78
2022/11/11 07:32:16;;;;;;;58.55;18.02;;;4.80;99.90;;;;;;5004579;28;20057;-84
2022/11/11 07:35:01;;;;;;;46.58;17.85;;;4.80;99.90;;;;;;5013082;28;20053;-80
2022/11/11 07:37:46;;;;;;;40.80;14.90;;;4.80;99.90;;;;;;5012483;28;20045;-81
2022/11/11 07:40:31;;;;;;;52.30;15.98;;;4.80;99.90;;;;;;5012418;28;20065;-81
2022/11/11 07:43:15;;;;;;;49.58;15.23;;;4.90;99.90;;;;;;5016437;28;20386;-81
2022/11/11 07:46:00;;;;;;;49.17;16.42;;;4.90;99.90;;;;;;5013066;28;20053;-81
2022/11/11 07:48:44;;;;;;;49.95;17.25;;;5.00;99.90;;;;;;5013089;28;20104;-81
2022/11/11 07:51:28;;;;;;;40.85;18.13;;;5.10;99.90;;;;;;5012269;28;20069;-81
2022/11/11 07:54:13;;;;;;;65.53;24.25;;;5.30;99.90;;;;;;5013303;28;20049;-81
2022/11/11 07:56:58;;;;;;;55.25;21.70;;;5.40;99.90;;;;;;5015847;28;20048;-80
2022/11/11 07:59:43;;;;;;;41.72;21.17;;;5.70;99.90;;;;;;5019906;28;20041;-81
2022/11/11 08:02:28;;;;;;;33.65;17.75;;;6.00;99.90;;;;;;5020432;28;20045;-82
2022/11/11 08:05:12;;;;;;;26.30;17.42;;;6.20;99.90;;;;;;5029024;28;20036;-81
2022/11/11 08:08:05;;;;;;;27.33;15.60;;;6.10;99.90;;;;;;5033174;28;20044;-81
2022/11/11 08:10:53;;;;;;;32.28;15.88;;;6.20;99.90;;;;;;5012867;28;20048;-82
2022/11/11 08:13:42;;;;;;;29.85;15.43;;;6.20;99.90;;;;;;5004930;28;20053;-83
2022/11/11 08:16:27;;;;;;;33.05;14.82;;;6.30;99.90;;;;;;5004377;28;20052;-83
2022/11/11 08:19:12;;;;;;;28.15;13.40;;;6.30;99.90;;;;;;4998952;28;20049;-82
2022/11/11 08:21:57;;;;;;;37.92;15.75;;;6.50;99.90;;;;;;5004472;28;20053;-82
2022/11/11 08:24:41;;;;;;;38.88;17.40;;;6.60;99.90;;;;;;5015260;28;20057;-83
2022/11/11 08:27:26;;;;;;;36.88;17.33;;;6.60;99.90;;;;;;5017266;28;20148;-82
2022/11/11 08:30:10;;;;;;;36.17;17.98;;;6.60;99.90;;;;;;5004882;28;20057;-82
2022/11/11 08:32:59;;;;;;;36.78;17.25;;;6.80;99.90;;;;;;5008336;28;20045;-83
2022/11/11 08:35:44;;;;;;;42.67;18.35;;;6.80;99.90;;;;;;5016499;28;20045;-82
2022/11/11 08:38:28;;;;;;;41.38;17.50;;;6.80;99.90;;;;;;5015662;28;20048;-83
2022/11/11 08:41:13;;;;;;;40.13;17.35;;;7.00;99.90;;;;;;5008004;28;20068;-80
2022/11/11 08:43:59;;;;;;;32.80;14.10;;;6.90;99.90;;;;;;5016890;28;20053;-82
2022/11/11 08:46:44;;;;;;;33.40;13.15;;;6.90;99.90;;;;;;5011179;28;20053;-82
2022/11/11 08:49:28;;;;;;;31.10;13.57;;;7.00;99.90;;;;;;5016282;28;20391;-82
2022/11/11 08:52:13;;;;;;;22.77;12.23;;;7.00;99.90;;;;;;5012580;28;20386;-81
2022/11/11 08:54:59;;;;;;;32.60;14.88;;;7.10;99.90;;;;;;5030343;28;20044;-81
2022/11/11 08:57:44;;;;;;;28.55;13.13;;;7.10;99.90;;;;;;5032031;28;20052;-84
2022/11/11 09:00:31;;;;;;;35.78;13.82;;;7.00;99.90;;;;;;5015625;28;20072;-82
2022/11/11 09:03:16;;;;;;;33.13;14.73;;;7.00;99.90;;;;;;5015821;28;20049;-83
2022/11/11 09:06:00;;;;;;;34.75;15.38;;;7.00;99.90;;;;;;5015578;28;20057;-82
2022/11/11 09:08:44;;;;;;;32.25;14.93;;;7.10;99.90;;;;;;5015624;28;20045;-83
2022/11/11 09:11:35;;;;;;;31.08;14.68;;;7.10;99.90;;;;;;5007489;28;20494;-83
2022/11/11 09:14:19;;;;;;;39.67;17.30;;;7.10;99.90;;;;;;5015790;28;20061;-87
2022/11/11 09:17:05;;;;;;;30.10;15.90;;;7.10;99.90;;;;;;5015855;28;20284;-82
2022/11/11 09:19:50;;;;;;;31.13;14.32;;;7.00;99.90;;;;;;5007332;28;20052;-83
2022/11/11 09:22:41;;;;;;;39.55;15.60;;;7.00;99.90;;;;;;5006943;28;20048;-83
2022/11/11 09:25:26;;;;;;;29.40;16.33;;;7.00;99.90;;;;;;5006839;28;20060;-83
2022/11/11 09:28:10;;;;;;;34.08;15.15;;;7.00;99.90;;;;;;5015767;28;20493;-83
2022/11/11 09:30:58;;;;;;;33.47;16.75;;;7.00;99.90;;;;;;5001719;28;20423;-82
2022/11/11 09:33:42;;;;;;;37.08;17.17;;;7.10;99.90;;;;;;5015020;28;20045;-83
2022/11/11 09:36:28;;;;;;;34.28;16.13;;;7.20;99.90;;;;;;5015391;28;20041;-83
2022/11/11 09:39:13;;;;;;;40.97;22.35;;;7.20;99.90;;;;;;5015316;28;20490;-82
2022/11/11 09:42:16;;;;;;;29.95;16.55;;;7.10;99.90;;;;;;5015260;28;20506;-82
2022/11/11 09:45:28;;;;;;;34.97;17.58;;;7.20;99.90;;;;;;5015174;28;20045;-83
2022/11/11 09:48:31;;;;;;;23.88;14.82;;;7.30;99.90;;;;;;5015306;28;20073;-82
2022/11/11 09:51:27;;;;;;;21.50;13.68;;;7.50;99.90;;;;;;5015343;28;20045;-82
2022/11/11 09:54:17;;;;;;;19.52;12.50;;;7.50;99.90;;;;;;5014982;28;20045;-83
2022/11/11 09:57:10;;;;;;;22.85;12.80;;;7.70;99.90;;;;;;5014935;28;20048;-83
2022/11/11 09:59:59;;;;;;;22.80;13.80;;;7.80;99.90;;;;;;5014558;28;20506;-84
2022/11/11 10:03:09;;;;;;;22.83;13.45;;;7.80;99.90;;;;;;5014221;28;20060;-82
2022/11/11 10:06:13;;;;;;;20.88;12.60;;;7.60;99.90;;;;;;4996906;28;20052;-82
2022/11/11 10:09:03;;;;;;;24.15;14.70;;;7.40;99.90;;;;;;5014552;28;20053;-85
2022/11/11 10:12:09;;;;;;;26.63;14.75;;;7.40;99.90;;;;;;5014899;28;20498;-85
2022/11/11 10:14:54;;;;;;;22.55;13.27;;;7.70;99.90;;;;;;5015079;28;20049;-85
2022/11/11 10:18:20;;;;;;;23.85;13.75;;;7.70;99.90;;;;;;5014334;28;20052;-84
2022/11/11 10:21:21;;;;;;;25.15;13.90;;;7.80;99.90;;;;;;5015000;28;20057;-84
2022/11/11 10:24:14;;;;;;;26.52;13.85;;;8.00;99.90;;;;;;5014845;28;20044;-84
2022/11/11 10:27:03;;;;;;;24.38;14.38;;;8.20;99.90;;;;;;5014769;28;20044;-85
2022/11/11 10:29:49;;;;;;;26.27;16.20;;;8.20;99.90;;;;;;5017385;28;20053;-85
2022/11/11 10:32:35;;;;;;;21.50;13.95;;;8.10;99.90;;;;;;5005924;28;20494;-82
2022/11/11 10:35:24;;;;;;;26.92;14.90;;;8.10;99.90;;;;;;5006283;28;20526;-85
2022/11/11 10:38:09;;;;;;;32.88;16.58;;;8.20;99.90;;;;;;5014311;28;20057;-85
2022/11/11 10:40:57;;;;;;;22.67;15.52;;;8.40;99.90;;;;;;5014074;28;20041;-85
2022/11/11 10:43:46;;;;;;;25.60;15.23;;;8.30;99.90;;;;;;5006293;28;20060;-85
2022/11/11 10:46:41;;;;;;;24.95;16.00;;;8.40;99.90;;;;;;5004937;28;20053;-85
2022/11/11 10:49:30;;;;;;;27.90;18.38;;;8.50;99.90;;;;;;5014629;28;20064;-90
2022/11/11 10:52:23;;;;;;;27.98;18.10;;;8.60;99.90;;;;;;5005715;28;20049;-84
2022/11/11 10:55:21;;;;;;;27.55;15.50;;;8.70;99.90;;;;;;5005896;28;20049;-85
2022/11/11 10:58:21;;;;;;;24.40;15.00;;;8.70;99.90;;;;;;5014043;28;20498;-89
2022/11/11 11:01:09;;;;;;;24.40;15.60;;;8.50;99.90;;;;;;5014910;28;20053;-90
2022/11/11 11:04:25;;;;;;;27.17;17.02;;;8.50;99.90;;;;;;5006373;28;20049;-90
2022/11/11 11:07:16;;;;;;;21.75;15.23;;;8.50;99.90;;;;;;5014207;28;20049;-92
2022/11/11 11:10:19;;;;;;;25.55;15.10;;;8.40;99.90;;;;;;5017205;28;20053;-91
2022/11/11 11:13:29;;;;;;;25.67;16.17;;;8.20;99.90;;;;;;5015932;28;20470;-92
2022/11/11 11:16:31;;;;;;;26.33;17.17;;;8.30;99.90;;;;;;5024265;28;20053;-92
2022/11/11 11:19:25;;;;;;;31.45;18.25;;;8.60;99.90;;;;;;5022522;28;20595;-92
2022/11/11 11:22:10;;;;;;;28.27;16.73;;;8.80;99.90;;;;;;5007799;28;20057;-92
2022/11/11 11:25:10;;;;;;;29.58;16.67;;;8.90;99.90;;;;;;5016650;28;20037;-94
2022/11/11 11:28:06;;;;;;;23.85;15.05;;;9.10;99.90;;;;;;5015687;28;20049;-94
2022/11/11 11:31:06;;;;;;;26.92;16.50;;;9.10;99.90;;;;;;5014645;28;20624;-76
2022/11/11 11:33:53;;;;;;;32.10;17.15;;;9.10;99.90;;;;;;5011776;28;20560;-78
2022/11/11 11:36:38;;;;;;;27.08;17.80;;;9.10;99.90;;;;;;5011585;28;20498;-78
2022/11/11 11:39:35;;;;;;;27.20;17.08;;;9.10;99.90;;;;;;5013204;28;20049;-88
2022/11/11 11:42:31;;;;;;;27.00;17.83;;;9.10;99.90;;;;;;5005383;28;20072;-86
2022/11/11 11:45:23;;;;;;;26.92;17.55;;;9.10;99.90;;;;;;5012851;28;20048;-85
2022/11/11 11:48:46;;;;;;;28.95;17.23;;;9.00;99.90;;;;;;5008991;28;20049;-86
2022/11/11 11:51:55;;;;;;;28.67;17.45;;;9.00;99.90;;;;;;4914217;29;20058;-85
2022/11/11 11:55:14;;;;;;;23.77;16.80;;;8.90;99.90;;;;;;5012776;28;20052;-83
2022/11/11 11:58:39;;;;;;;31.60;17.13;;;8.40;99.90;;;;;;5004104;28;20419;-84
2022/11/11 12:01:39;;;;;;;31.30;18.23;;;8.10;99.90;;;;;;5017300;28;20053;-86
2022/11/11 12:04:51;;;;;;;31.77;18.05;;;8.20;99.90;;;;;;5016942;28;20045;-86
2022/11/11 12:08:08;;;;;;;29.52;18.40;;;8.20;99.90;;;;;;5008306;28;20064;-83
2022/11/11 12:11:21;;;;;;;37.47;21.05;;;8.40;99.90;;;;;;5019439;28;20300;-82
2022/11/11 12:14:36;;;;;;;35.28;20.35;;;8.60;99.90;;;;;;5013926;28;20517;-81
2022/11/11 12:17:40;;;;;;;34.47;21.23;;;8.90;99.90;;;;;;5025241;28;20109;-80
2022/11/11 12:20:35;;;;;;;35.95;20.00;;;8.90;99.90;;;;;;5040120;28;20044;-81
2022/11/11 12:24:06;;;;;;;30.38;17.80;;;8.90;99.90;;;;;;5036574;28;20044;-82
2022/11/11 12:27:17;;;;;;;33.72;19.77;;;8.80;99.90;;;;;;4943218;29;20630;-82
2022/11/11 12:30:11;;;;;;;37.38;21.80;;;8.80;99.90;;;;;;4934164;29;20074;-82
2022/11/11 12:33:38;;;;;;;38.78;21.88;;;8.80;99.90;;;;;;5016385;28;20122;-82
2022/11/11 12:36:42;;;;;;;45.63;22.83;;;8.90;99.90;;;;;;5008081;28;20093;-82
2022/11/11 12:40:11;;;;;;;39.42;20.77;;;8.80;99.90;;;;;;5016345;28;20052;-82
2022/11/11 12:43:05;;;;;;;27.13;16.77;;;8.80;99.90;;;;;;5015957;28;20053;-82
2022/11/11 12:46:09;;;;;;;37.67;19.17;;;8.90;99.90;;;;;;5007691;28;20049;-81
2022/11/11 12:49:32;;;;;;;33.33;17.40;;;8.70;99.90;;;;;;5016209;28;20053;-83
2022/11/11 12:52:38;;;;;;;32.20;18.50;;;8.70;99.90;;;;;;5023070;28;20494;-81
2022/11/11 12:56:03;;;;;;;33.08;18.40;;;8.90;99.90;;;;;;5007946;28;20044;-81
2022/11/11 12:59:16;;;;;;;35.42;20.05;;;8.80;99.90;;;;;;4997890;28;20045;-82
2022/11/11 13:02:01;;;;;;;34.67;20.42;;;9.00;99.90;;;;;;5019355;28;20065;-82
2022/11/11 13:04:54;;;;;;;55.15;27.13;;;9.20;99.90;;;;;;5014858;28;20498;-82
2022/11/11 13:08:15;;;;;;;52.92;28.08;;;9.30;99.90;;;;;;5007164;28;20049;-82
2022/11/11 13:11:41;;;;;;;43.42;24.13;;;9.40;99.90;;;;;;5015438;28;20053;-82
2022/11/11 13:14:32;;;;;;;51.13;26.58;;;9.20;99.90;;;;;;5007714;28;20057;-82
2022/11/11 13:17:16;;;;;;;50.30;27.95;;;9.20;99.90;;;;;;5007041;28;20052;-82
2022/11/11 13:20:33;;;;;;;59.88;33.63;;;9.10;99.90;;;;;;5015527;28;20113;-82
2022/11/11 13:23:18;;;;;;;56.40;28.88;;;9.00;99.90;;;;;;4992645;28;20049;-82
2022/11/11 13:26:14;;;;;;;55.92;28.73;;;8.90;99.90;;;;;;5015778;28;20049;-82
2022/11/11 13:29:31;;;;;;;59.08;31.83;;;9.00;99.90;;;;;;5015123;28;20044;-82
2022/11/11 13:32:21;;;;;;;66.32;35.65;;;9.20;99.90;;;;;;4992313;28;20046;-82
2022/11/11 13:35:29;;;;;;;58.95;33.03;;;9.30;99.90;;;;;;5015277;28;20415;-82
2022/11/11 13:38:29;;;;;;;62.20;33.30;;;9.40;99.90;;;;;;5015085;28;20049;-82
2022/11/11 13:41:31;;;;;;;59.65;32.85;;;9.40;99.90;;;;;;5015217;28;20053;-81
2022/11/11 13:44:25;;;;;;;63.13;31.55;;;9.30;99.90;;;;;;5007246;28;20049;-82
2022/11/11 13:47:18;;;;;;;63.00;33.75;;;9.30;99.90;;;;;;5021548;28;20049;-82
2022/11/11 13:50:22;;;;;;;64.60;34.65;;;9.30;99.90;;;;;;5006954;28;20406;-82
2022/11/11 13:53:22;;;;;;;69.90;34.35;;;9.30;99.90;;;;;;5019805;28;20045;-83
2022/11/11 13:56:10;;;;;;;57.88;33.95;;;9.40;99.90;;;;;;5004425;28;20060;-85
2022/11/11 13:58:55;;;;;;;66.00;35.95;;;9.30;99.90;;;;;;5013999;28;20045;-85
2022/11/11 14:01:40;;;;;;;63.83;34.35;;;9.30;99.90;;;;;;4986293;28;20519;-81
2022/11/11 14:04:25;;;;;;;62.15;32.95;;;9.40;99.90;;;;;;4988728;28;20041;-80
2022/11/11 14:07:10;;;;;;;73.15;36.00;;;9.40;99.90;;;;;;4995221;28;20433;-79
2022/11/11 14:10:01;;;;;;;73.78;34.65;;;9.40;99.90;;;;;;4993474;28;20392;-79
2022/11/11 14:12:50;;;;;;;63.58;34.38;;;9.30;99.90;;;;;;4999818;28;20069;-82
2022/11/11 14:15:44;;;;;;;68.97;35.97;;;9.40;99.90;;;;;;4985986;28;20400;-76
2022/11/11 14:18:38;;;;;;;69.40;36.45;;;9.40;99.90;;;;;;4994841;28;20380;-85
2022/11/11 14:21:42;;;;;;;71.30;36.45;;;9.40;99.90;;;;;;4994051;28;20046;-85
2022/11/11 14:24:46;;;;;;;72.10;35.88;;;9.40;99.90;;;;;;4994943;28;20041;-87
2022/11/11 14:27:33;;;;;;;69.07;36.40;;;9.40;99.90;;;;;;4986846;28;20391;-85
2022/11/11 14:30:38;;;;;;;63.03;34.05;;;9.40;99.90;;;;;;4995217;28;20413;-86
2022/11/11 14:33:43;;;;;;;61.28;33.03;;;9.40;99.90;;;;;;4996853;28;20049;-85
2022/11/11 14:36:28;;;;;;;70.20;34.20;;;9.20;99.90;;;;;;4987080;28;20071;-85
2022/11/11 14:39:35;;;;;;;72.80;37.72;;;9.10;99.90;;;;;;4994242;28;20054;-83
2022/11/11 14:42:35;;;;;;;80.60;40.28;;;9.10;99.90;;;;;;5017220;28;20029;-85
2022/11/11 14:45:29;;;;;;;75.78;38.83;;;9.00;99.90;;;;;;5005690;28;20057;-80
2022/11/11 14:48:51;;;;;;;73.85;39.88;;;9.00;99.90;;;;;;5005546;28;20047;-77
2022/11/11 14:51:57;;;;;;;76.63;38.53;;;9.10;99.90;;;;;;4993834;28;20064;-76
2022/11/11 14:55:05;;;;;;;81.03;40.28;;;9.10;99.90;;;;;;4993031;28;20041;-81
2022/11/11 14:58:05;;;;;;;77.53;38.33;;;9.20;99.90;;;;;;4993384;28;20053;-83
2022/11/11 15:01:01;;;;;;;96.13;38.05;;;9.20;99.90;;;;;;4984275;28;20041;-77
2022/11/11 15:03:52;;;;;;;82.28;39.80;;;9.20;99.90;;;;;;4992281;28;20048;-77
2022/11/11 15:06:44;;;;;;;80.50;36.10;;;9.10;99.90;;;;;;4993437;28;20045;-77
2022/11/11 15:10:03;;;;;;;78.82;38.45;;;9.00;99.90;;;;;;4993040;28;20049;-76
2022/11/11 15:13:09;;;;;;;75.93;37.63;;;9.00;99.90;;;;;;4998793;28;20372;-77
2022/11/11 15:16:07;;;;;;;77.03;36.05;;;9.10;99.90;;;;;;4992339;28;20045;-76
2022/11/11 15:19:07;;;;;;;77.65;36.08;;;9.20;99.90;;;;;;4994628;28;20053;-81
2022/11/11 15:22:09;;;;;;;81.57;37.72;;;9.10;99.90;;;;;;4993264;28;20522;-80
2022/11/11 15:25:15;;;;;;;78.13;37.75;;;9.20;99.90;;;;;;4993427;28;20053;-80
2022/11/11 15:28:19;;;;;;;77.85;39.20;;;8.90;99.90;;;;;;5009824;28;20072;-81
2022/11/11 15:31:19;;;;;;;92.07;41.58;;;8.80;99.90;;;;;;5011848;28;20069;-81
2022/11/11 15:34:43;;;;;;;88.80;40.92;;;8.70;99.90;;;;;;5012949;28;20053;-81
2022/11/11 15:37:29;;;;;;;88.88;44.08;;;8.70;99.90;;;;;;5013857;28;20049;-81
2022/11/11 15:40:26;;;;;;;96.47;44.42;;;8.70;99.90;;;;;;5016588;28;20049;-81
2022/11/11 15:43:20;;;;;;;101.75;45.72;;;8.70;99.90;;;;;;5008013;28;20117;-81
2022/11/11 15:46:05;;;;;;;96.25;45.17;;;8.70;99.90;;;;;;5019092;28;20069;-81
2022/11/11 15:48:52;;;;;;;92.60;50.03;;;8.70;99.90;;;;;;5012661;28;20049;-81
2022/11/11 15:51:37;;;;;;;90.57;43.50;;;8.60;99.90;;;;;;5004943;28;20507;-81